sensor_id;sensor_type;location;lat;lon;timestamp;P1;durP1;ratioP1;P2;durP2;ratioP2
45522;SDS011;31254;51.680;5.394;2024-02-26T00:02:30;4.90;;;2.40;;
45522;SDS011;31254;51.680;5.394;2024-02-26T00:04:59;4.93;;;2.42;;
45522;SDS011;31254;51.680;5.394;2024-02-26T00:07:26;3.55;;;2.20;;
45522;SDS011;31254;51.680;5.394;2024-02-26T00:10:03;3.65;;;2.00;;
45522;SDS011;31254;51.680;5.394;2024-02-26T00:12:30;5.18;;;2.05;;
45522;SDS011;31254;51.680;5.394;2024-02-26T00:14:57;4.53;;;2.60;;
45522;SDS011;31254;51.680;5.394;2024-02-26T00:17:25;3.88;;;2.30;;
45522;SDS011;31254;51.680;5.394;2024-02-26T00:19:52;3.47;;;2.28;;
45522;SDS011;31254;51.680;5.394;2024-02-26T00:22:20;4.97;;;2.20;;
45522;SDS011;31254;51.680;5.394;2024-02-26T00:24:48;4.97;;;2.20;;
45522;SDS011;31254;51.680;5.394;2024-02-26T00:27:15;4.13;;;2.47;;
45522;SDS011;31254;51.680;5.394;2024-02-26T00:29:42;3.15;;;2.20;;
45522;SDS011;31254;51.680;5.394;2024-02-26T00:32:09;3.55;;;2.60;;
45522;SDS011;31254;51.680;5.394;2024-02-26T00:34:35;6.75;;;2.38;;
45522;SDS011;31254;51.680;5.394;2024-02-26T00:37:02;3.53;;;2.28;;
45522;SDS011;31254;51.680;5.394;2024-02-26T00:39:29;5.50;;;2.47;;
45522;SDS011;31254;51.680;5.394;2024-02-26T00:41:55;5.57;;;2.47;;
45522;SDS011;31254;51.680;5.394;2024-02-26T00:44:22;4.35;;;2.33;;
45522;SDS011;31254;51.680;5.394;2024-02-26T00:46:49;2.70;;;2.15;;
45522;SDS011;31254;51.680;5.394;2024-02-26T00:49:16;3.63;;;2.40;;
45522;SDS011;31254;51.680;5.394;2024-02-26T00:51:43;4.57;;;2.25;;
45522;SDS011;31254;51.680;5.394;2024-02-26T00:54:09;7.03;;;2.42;;
45522;SDS011;31254;51.680;5.394;2024-02-26T00:56:46;3.85;;;2.47;;
45522;SDS011;31254;51.680;5.394;2024-02-26T00:59:13;3.15;;;2.10;;
45522;SDS011;31254;51.680;5.394;2024-02-26T01:01:41;3.75;;;2.38;;
45522;SDS011;31254;51.680;5.394;2024-02-26T01:04:08;4.72;;;2.40;;
45522;SDS011;31254;51.680;5.394;2024-02-26T01:06:48;3.65;;;2.10;;
45522;SDS011;31254;51.680;5.394;2024-02-26T01:09:29;4.38;;;2.30;;
45522;SDS011;31254;51.680;5.394;2024-02-26T01:11:56;3.25;;;2.10;;
45522;SDS011;31254;51.680;5.394;2024-02-26T01:14:23;4.55;;;2.42;;
45522;SDS011;31254;51.680;5.394;2024-02-26T01:16:51;3.63;;;2.25;;
45522;SDS011;31254;51.680;5.394;2024-02-26T01:19:22;4.18;;;2.05;;
45522;SDS011;31254;51.680;5.394;2024-02-26T01:21:49;3.13;;;2.17;;
45522;SDS011;31254;51.680;5.394;2024-02-26T01:24:18;4.10;;;2.20;;
45522;SDS011;31254;51.680;5.394;2024-02-26T01:26:46;3.40;;;2.40;;
45522;SDS011;31254;51.680;5.394;2024-02-26T01:29:13;4.57;;;2.63;;
45522;SDS011;31254;51.680;5.394;2024-02-26T01:31:41;3.00;;;2.30;;
45522;SDS011;31254;51.680;5.394;2024-02-26T01:34:08;4.55;;;2.58;;
45522;SDS011;31254;51.680;5.394;2024-02-26T01:36:36;4.20;;;2.15;;
45522;SDS011;31254;51.680;5.394;2024-02-26T01:41:52;4.40;;;2.92;;
45522;SDS011;31254;51.680;5.394;2024-02-26T01:46:54;4.25;;;2.40;;
45522;SDS011;31254;51.680;5.394;2024-02-26T01:51:56;3.30;;;2.03;;
45522;SDS011;31254;51.680;5.394;2024-02-26T01:54:23;3.70;;;2.20;;
45522;SDS011;31254;51.680;5.394;2024-02-26T01:56:50;5.63;;;2.28;;
45522;SDS011;31254;51.680;5.394;2024-02-26T01:59:17;3.13;;;2.10;;
45522;SDS011;31254;51.680;5.394;2024-02-26T02:01:46;3.33;;;2.33;;
45522;SDS011;31254;51.680;5.394;2024-02-26T02:04:35;4.25;;;2.50;;
45522;SDS011;31254;51.680;5.394;2024-02-26T02:07:17;3.10;;;2.05;;
45522;SDS011;31254;51.680;5.394;2024-02-26T02:10:01;3.15;;;2.22;;
45522;SDS011;31254;51.680;5.394;2024-02-26T02:12:29;3.00;;;2.10;;
45522;SDS011;31254;51.680;5.394;2024-02-26T02:14:59;4.18;;;2.30;;
45522;SDS011;31254;51.680;5.394;2024-02-26T02:17:27;3.55;;;2.03;;
45522;SDS011;31254;51.680;5.394;2024-02-26T02:19:54;4.25;;;2.53;;
45522;SDS011;31254;51.680;5.394;2024-02-26T02:22:21;2.95;;;2.08;;
45522;SDS011;31254;51.680;5.394;2024-02-26T02:24:52;3.10;;;2.22;;
45522;SDS011;31254;51.680;5.394;2024-02-26T02:27:19;4.68;;;2.47;;
45522;SDS011;31254;51.680;5.394;2024-02-26T02:29:47;3.55;;;2.30;;
45522;SDS011;31254;51.680;5.394;2024-02-26T02:32:14;5.05;;;2.25;;
45522;SDS011;31254;51.680;5.394;2024-02-26T02:34:43;5.25;;;2.38;;
45522;SDS011;31254;51.680;5.394;2024-02-26T02:37:10;4.68;;;2.10;;
45522;SDS011;31254;51.680;5.394;2024-02-26T02:39:37;3.22;;;2.40;;
45522;SDS011;31254;51.680;5.394;2024-02-26T02:42:04;3.78;;;2.10;;
45522;SDS011;31254;51.680;5.394;2024-02-26T02:44:33;3.33;;;2.53;;
45522;SDS011;31254;51.680;5.394;2024-02-26T02:47:00;3.63;;;2.50;;
45522;SDS011;31254;51.680;5.394;2024-02-26T02:49:28;4.07;;;2.40;;
45522;SDS011;31254;51.680;5.394;2024-02-26T02:52:08;3.20;;;2.35;;
45522;SDS011;31254;51.680;5.394;2024-02-26T02:54:42;4.43;;;2.30;;
45522;SDS011;31254;51.680;5.394;2024-02-26T02:57:08;2.95;;;2.42;;
45522;SDS011;31254;51.680;5.394;2024-02-26T02:59:37;3.85;;;2.42;;
45522;SDS011;31254;51.680;5.394;2024-02-26T03:02:04;5.40;;;2.30;;
45522;SDS011;31254;51.680;5.394;2024-02-26T03:04:32;3.50;;;2.25;;
45522;SDS011;31254;51.680;5.394;2024-02-26T03:07:00;4.35;;;2.53;;
45522;SDS011;31254;51.680;5.394;2024-02-26T03:09:27;4.30;;;2.42;;
45522;SDS011;31254;51.680;5.394;2024-02-26T03:11:53;3.10;;;2.03;;
45522;SDS011;31254;51.680;5.394;2024-02-26T03:14:21;3.80;;;2.33;;
45522;SDS011;31254;51.680;5.394;2024-02-26T03:16:48;4.30;;;2.40;;
45522;SDS011;31254;51.680;5.394;2024-02-26T03:19:15;3.38;;;2.10;;
45522;SDS011;31254;51.680;5.394;2024-02-26T03:21:43;3.45;;;2.25;;
45522;SDS011;31254;51.680;5.394;2024-02-26T03:24:10;4.75;;;2.40;;
45522;SDS011;31254;51.680;5.394;2024-02-26T03:26:38;3.58;;;2.22;;
45522;SDS011;31254;51.680;5.394;2024-02-26T03:29:05;3.35;;;2.58;;
45522;SDS011;31254;51.680;5.394;2024-02-26T03:31:32;2.67;;;1.90;;
45522;SDS011;31254;51.680;5.394;2024-02-26T03:33:58;3.30;;;2.38;;
45522;SDS011;31254;51.680;5.394;2024-02-26T03:36:25;3.97;;;2.42;;
45522;SDS011;31254;51.680;5.394;2024-02-26T03:38:53;3.28;;;2.20;;
45522;SDS011;31254;51.680;5.394;2024-02-26T03:41:20;3.83;;;2.30;;
45522;SDS011;31254;51.680;5.394;2024-02-26T03:43:46;3.65;;;2.35;;
45522;SDS011;31254;51.680;5.394;2024-02-26T03:46:13;5.10;;;2.50;;
45522;SDS011;31254;51.680;5.394;2024-02-26T03:48:43;3.40;;;2.33;;
45522;SDS011;31254;51.680;5.394;2024-02-26T03:51:09;3.25;;;2.08;;
45522;SDS011;31254;51.680;5.394;2024-02-26T03:53:39;3.88;;;2.70;;
45522;SDS011;31254;51.680;5.394;2024-02-26T03:56:06;4.28;;;2.50;;
45522;SDS011;31254;51.680;5.394;2024-02-26T03:58:33;5.45;;;2.78;;
45522;SDS011;31254;51.680;5.394;2024-02-26T04:01:00;4.28;;;2.58;;
45522;SDS011;31254;51.680;5.394;2024-02-26T04:03:27;4.65;;;2.60;;
45522;SDS011;31254;51.680;5.394;2024-02-26T04:05:53;3.75;;;2.53;;
45522;SDS011;31254;51.680;5.394;2024-02-26T04:08:20;4.35;;;2.70;;
45522;SDS011;31254;51.680;5.394;2024-02-26T04:10:47;3.42;;;2.42;;
45522;SDS011;31254;51.680;5.394;2024-02-26T04:13:14;3.72;;;2.60;;
45522;SDS011;31254;51.680;5.394;2024-02-26T04:15:41;3.80;;;2.58;;
45522;SDS011;31254;51.680;5.394;2024-02-26T04:18:08;4.13;;;2.72;;
45522;SDS011;31254;51.680;5.394;2024-02-26T04:20:35;3.95;;;2.67;;
45522;SDS011;31254;51.680;5.394;2024-02-26T04:23:02;4.22;;;2.45;;
45522;SDS011;31254;51.680;5.394;2024-02-26T04:25:29;3.50;;;2.58;;
45522;SDS011;31254;51.680;5.394;2024-02-26T04:27:56;5.97;;;2.53;;
45522;SDS011;31254;51.680;5.394;2024-02-26T04:30:23;3.40;;;2.38;;
45522;SDS011;31254;51.680;5.394;2024-02-26T04:32:50;5.05;;;2.67;;
45522;SDS011;31254;51.680;5.394;2024-02-26T04:35:17;3.78;;;2.22;;
45522;SDS011;31254;51.680;5.394;2024-02-26T04:37:44;3.08;;;2.35;;
45522;SDS011;31254;51.680;5.394;2024-02-26T04:40:24;3.42;;;2.30;;
45522;SDS011;31254;51.680;5.394;2024-02-26T04:42:51;3.78;;;2.60;;
45522;SDS011;31254;51.680;5.394;2024-02-26T04:45:18;3.72;;;2.65;;
45522;SDS011;31254;51.680;5.394;2024-02-26T04:47:44;4.60;;;2.75;;
45522;SDS011;31254;51.680;5.394;2024-02-26T04:50:11;3.13;;;2.20;;
45522;SDS011;31254;51.680;5.394;2024-02-26T04:52:38;4.68;;;2.60;;
45522;SDS011;31254;51.680;5.394;2024-02-26T04:55:17;3.65;;;2.53;;
45522;SDS011;31254;51.680;5.394;2024-02-26T05:00:30;4.05;;;2.58;;
45522;SDS011;31254;51.680;5.394;2024-02-26T05:02:57;3.88;;;2.58;;
45522;SDS011;31254;51.680;5.394;2024-02-26T05:05:23;3.20;;;2.60;;
45522;SDS011;31254;51.680;5.394;2024-02-26T05:08:05;3.60;;;2.58;;
45522;SDS011;31254;51.680;5.394;2024-02-26T05:10:47;3.83;;;2.53;;
45522;SDS011;31254;51.680;5.394;2024-02-26T05:13:29;3.72;;;2.45;;
45522;SDS011;31254;51.680;5.394;2024-02-26T05:15:58;3.65;;;2.38;;
45522;SDS011;31254;51.680;5.394;2024-02-26T05:18:39;3.03;;;1.98;;
45522;SDS011;31254;51.680;5.394;2024-02-26T05:21:07;3.53;;;2.30;;
45522;SDS011;31254;51.680;5.394;2024-02-26T05:23:34;4.80;;;2.55;;
45522;SDS011;31254;51.680;5.394;2024-02-26T05:26:00;3.38;;;2.40;;
45522;SDS011;31254;51.680;5.394;2024-02-26T05:28:27;4.82;;;2.75;;
45522;SDS011;31254;51.680;5.394;2024-02-26T05:30:53;3.63;;;2.30;;
45522;SDS011;31254;51.680;5.394;2024-02-26T05:33:20;3.38;;;2.65;;
45522;SDS011;31254;51.680;5.394;2024-02-26T05:35:47;3.33;;;2.42;;
45522;SDS011;31254;51.680;5.394;2024-02-26T05:38:14;4.32;;;2.60;;
45522;SDS011;31254;51.680;5.394;2024-02-26T05:40:40;3.03;;;2.42;;
45522;SDS011;31254;51.680;5.394;2024-02-26T05:43:07;5.78;;;2.75;;
45522;SDS011;31254;51.680;5.394;2024-02-26T05:45:33;6.85;;;2.78;;
45522;SDS011;31254;51.680;5.394;2024-02-26T05:48:00;4.00;;;2.65;;
45522;SDS011;31254;51.680;5.394;2024-02-26T05:50:27;3.72;;;2.72;;
45522;SDS011;31254;51.680;5.394;2024-02-26T05:52:54;3.97;;;2.80;;
45522;SDS011;31254;51.680;5.394;2024-02-26T05:55:20;3.40;;;2.60;;
45522;SDS011;31254;51.680;5.394;2024-02-26T05:57:47;4.10;;;2.85;;
45522;SDS011;31254;51.680;5.394;2024-02-26T06:00:16;4.00;;;2.72;;
45522;SDS011;31254;51.680;5.394;2024-02-26T06:02:43;3.13;;;2.35;;
45522;SDS011;31254;51.680;5.394;2024-02-26T06:05:09;3.63;;;2.55;;
45522;SDS011;31254;51.680;5.394;2024-02-26T06:07:36;4.57;;;2.63;;
45522;SDS011;31254;51.680;5.394;2024-02-26T06:10:03;3.78;;;2.65;;
45522;SDS011;31254;51.680;5.394;2024-02-26T06:12:31;4.78;;;3.08;;
45522;SDS011;31254;51.680;5.394;2024-02-26T06:14:59;3.90;;;2.83;;
45522;SDS011;31254;51.680;5.394;2024-02-26T06:17:27;4.05;;;2.70;;
45522;SDS011;31254;51.680;5.394;2024-02-26T06:19:54;3.45;;;2.67;;
45522;SDS011;31254;51.680;5.394;2024-02-26T06:22:21;3.88;;;2.42;;
45522;SDS011;31254;51.680;5.394;2024-02-26T06:24:49;3.78;;;2.92;;
45522;SDS011;31254;51.680;5.394;2024-02-26T06:27:16;5.55;;;3.08;;
45522;SDS011;31254;51.680;5.394;2024-02-26T06:29:59;3.78;;;2.60;;
45522;SDS011;31254;51.680;5.394;2024-02-26T06:35:07;3.87;;;2.60;;
45522;SDS011;31254;51.680;5.394;2024-02-26T06:40:11;5.18;;;2.60;;
45522;SDS011;31254;51.680;5.394;2024-02-26T06:42:38;3.58;;;2.67;;
45522;SDS011;31254;51.680;5.394;2024-02-26T06:45:05;4.22;;;2.55;;
45522;SDS011;31254;51.680;5.394;2024-02-26T06:47:31;2.80;;;2.40;;
45522;SDS011;31254;51.680;5.394;2024-02-26T06:50:05;4.65;;;2.70;;
45522;SDS011;31254;51.680;5.394;2024-02-26T06:52:46;3.83;;;2.78;;
45522;SDS011;31254;51.680;5.394;2024-02-26T06:55:27;4.15;;;2.50;;
45522;SDS011;31254;51.680;5.394;2024-02-26T06:58:28;4.05;;;3.13;;
45522;SDS011;31254;51.680;5.394;2024-02-26T07:01:14;3.90;;;2.60;;
45522;SDS011;31254;51.680;5.394;2024-02-26T07:03:56;3.70;;;2.70;;
45522;SDS011;31254;51.680;5.394;2024-02-26T07:06:38;4.95;;;2.60;;
45522;SDS011;31254;51.680;5.394;2024-02-26T07:09:19;4.32;;;2.72;;
45522;SDS011;31254;51.680;5.394;2024-02-26T07:14:47;3.55;;;2.70;;
45522;SDS011;31254;51.680;5.394;2024-02-26T07:17:15;4.82;;;2.88;;
45522;SDS011;31254;51.680;5.394;2024-02-26T07:19:42;4.50;;;2.88;;
45522;SDS011;31254;51.680;5.394;2024-02-26T07:24:51;3.38;;;2.58;;
45522;SDS011;31254;51.680;5.394;2024-02-26T07:27:18;4.25;;;3.03;;
45522;SDS011;31254;51.680;5.394;2024-02-26T07:29:48;7.00;;;2.85;;
45522;SDS011;31254;51.680;5.394;2024-02-26T07:32:14;3.80;;;2.80;;
45522;SDS011;31254;51.680;5.394;2024-02-26T07:34:41;5.97;;;3.30;;
45522;SDS011;31254;51.680;5.394;2024-02-26T07:37:11;3.60;;;2.58;;
45522;SDS011;31254;51.680;5.394;2024-02-26T07:39:37;4.22;;;3.15;;
45522;SDS011;31254;51.680;5.394;2024-02-26T07:42:04;4.10;;;2.85;;
45522;SDS011;31254;51.680;5.394;2024-02-26T07:44:32;4.60;;;2.70;;
45522;SDS011;31254;51.680;5.394;2024-02-26T07:46:59;3.60;;;2.72;;
45522;SDS011;31254;51.680;5.394;2024-02-26T07:49:26;3.72;;;2.70;;
45522;SDS011;31254;51.680;5.394;2024-02-26T07:51:53;4.80;;;2.88;;
45522;SDS011;31254;51.680;5.394;2024-02-26T07:54:20;4.43;;;3.10;;
45522;SDS011;31254;51.680;5.394;2024-02-26T07:56:47;3.85;;;2.83;;
45522;SDS011;31254;51.680;5.394;2024-02-26T07:59:18;4.05;;;2.78;;
45522;SDS011;31254;51.680;5.394;2024-02-26T08:02:05;4.22;;;2.55;;
45522;SDS011;31254;51.680;5.394;2024-02-26T08:21:05;5.13;;;2.95;;
45522;SDS011;31254;51.680;5.394;2024-02-26T08:31:30;4.82;;;3.25;;
45522;SDS011;31254;51.680;5.394;2024-02-26T08:33:57;4.45;;;3.33;;
45522;SDS011;31254;51.680;5.394;2024-02-26T08:44:30;4.13;;;3.17;;
45522;SDS011;31254;51.680;5.394;2024-02-26T08:49:33;4.60;;;3.15;;
45522;SDS011;31254;51.680;5.394;2024-02-26T08:51:59;4.93;;;3.55;;
45522;SDS011;31254;51.680;5.394;2024-02-26T09:02:32;5.15;;;3.58;;
45522;SDS011;31254;51.680;5.394;2024-02-26T09:04:58;8.05;;;3.88;;
45522;SDS011;31254;51.680;5.394;2024-02-26T09:07:25;5.40;;;3.85;;
45522;SDS011;31254;51.680;5.394;2024-02-26T09:09:53;5.38;;;3.53;;
45522;SDS011;31254;51.680;5.394;2024-02-26T09:12:20;4.95;;;3.60;;
45522;SDS011;31254;51.680;5.394;2024-02-26T09:14:47;5.70;;;4.05;;
45522;SDS011;31254;51.680;5.394;2024-02-26T09:17:14;5.72;;;3.92;;
45522;SDS011;31254;51.680;5.394;2024-02-26T09:19:41;5.55;;;4.00;;
45522;SDS011;31254;51.680;5.394;2024-02-26T09:22:09;6.78;;;4.43;;
45522;SDS011;31254;51.680;5.394;2024-02-26T09:24:36;5.65;;;4.13;;
45522;SDS011;31254;51.680;5.394;2024-02-26T09:27:03;5.90;;;4.43;;
45522;SDS011;31254;51.680;5.394;2024-02-26T09:29:31;5.97;;;4.32;;
45522;SDS011;31254;51.680;5.394;2024-02-26T09:31:59;5.75;;;4.13;;
45522;SDS011;31254;51.680;5.394;2024-02-26T09:34:29;6.30;;;4.30;;
45522;SDS011;31254;51.680;5.394;2024-02-26T09:36:56;6.65;;;4.38;;
45522;SDS011;31254;51.680;5.394;2024-02-26T09:39:33;5.85;;;4.35;;
45522;SDS011;31254;51.680;5.394;2024-02-26T09:42:01;6.70;;;4.68;;
45522;SDS011;31254;51.680;5.394;2024-02-26T09:44:31;7.18;;;4.97;;
45522;SDS011;31254;51.680;5.394;2024-02-26T09:47:03;7.00;;;5.07;;
45522;SDS011;31254;51.680;5.394;2024-02-26T09:49:31;7.85;;;5.55;;
45522;SDS011;31254;51.680;5.394;2024-02-26T09:59:59;8.77;;;5.53;;
45522;SDS011;31254;51.680;5.394;2024-02-26T10:05:05;8.00;;;5.82;;
45522;SDS011;31254;51.680;5.394;2024-02-26T10:07:36;8.95;;;5.35;;
45522;SDS011;31254;51.680;5.394;2024-02-26T10:12:39;8.95;;;5.47;;
45522;SDS011;31254;51.680;5.394;2024-02-26T10:15:06;9.30;;;5.70;;
45522;SDS011;31254;51.680;5.394;2024-02-26T10:20:18;8.13;;;5.75;;
45522;SDS011;31254;51.680;5.394;2024-02-26T10:25:30;8.25;;;5.38;;
45522;SDS011;31254;51.680;5.394;2024-02-26T10:28:01;7.65;;;5.38;;
45522;SDS011;31254;51.680;5.394;2024-02-26T10:30:28;10.10;;;5.90;;
45522;SDS011;31254;51.680;5.394;2024-02-26T10:32:56;8.20;;;5.70;;
45522;SDS011;31254;51.680;5.394;2024-02-26T10:35:37;10.18;;;5.93;;
45522;SDS011;31254;51.680;5.394;2024-02-26T10:38:58;8.95;;;5.93;;
45522;SDS011;31254;51.680;5.394;2024-02-26T10:42:25;9.25;;;5.90;;
45522;SDS011;31254;51.680;5.394;2024-02-26T10:46:03;8.95;;;6.00;;
45522;SDS011;31254;51.680;5.394;2024-02-26T10:49:47;9.15;;;5.85;;
45522;SDS011;31254;51.680;5.394;2024-02-26T10:53:29;9.90;;;6.07;;
45522;SDS011;31254;51.680;5.394;2024-02-26T10:57:07;9.50;;;6.40;;
45522;SDS011;31254;51.680;5.394;2024-02-26T11:00:48;8.27;;;5.57;;
45522;SDS011;31254;51.680;5.394;2024-02-26T11:03:16;9.38;;;6.32;;
45522;SDS011;31254;51.680;5.394;2024-02-26T11:08:35;9.65;;;6.05;;
45522;SDS011;31254;51.680;5.394;2024-02-26T11:16:59;9.52;;;6.15;;
45522;SDS011;31254;51.680;5.394;2024-02-26T11:19:26;9.82;;;6.50;;
45522;SDS011;31254;51.680;5.394;2024-02-26T11:24:30;10.02;;;7.07;;
45522;SDS011;31254;51.680;5.394;2024-02-26T11:26:59;9.65;;;6.40;;
45522;SDS011;31254;51.680;5.394;2024-02-26T11:45:59;9.40;;;6.50;;
45522;SDS011;31254;51.680;5.394;2024-02-26T11:51:15;10.67;;;6.47;;
45522;SDS011;31254;51.680;5.394;2024-02-26T11:59:14;9.85;;;6.20;;
45522;SDS011;31254;51.680;5.394;2024-02-26T12:02:04;9.85;;;6.53;;
45522;SDS011;31254;51.680;5.394;2024-02-26T12:04:30;10.40;;;6.45;;
45522;SDS011;31254;51.680;5.394;2024-02-26T12:12:31;9.98;;;7.75;;
45522;SDS011;31254;51.680;5.394;2024-02-26T12:17:34;9.43;;;6.75;;
45522;SDS011;31254;51.680;5.394;2024-02-26T12:20:21;10.27;;;6.68;;
45522;SDS011;31254;51.680;5.394;2024-02-26T12:22:49;10.57;;;6.78;;
45522;SDS011;31254;51.680;5.394;2024-02-26T12:25:20;9.55;;;6.68;;
45522;SDS011;31254;51.680;5.394;2024-02-26T12:30:44;9.52;;;6.53;;
45522;SDS011;31254;51.680;5.394;2024-02-26T12:33:17;10.82;;;6.93;;
45522;SDS011;31254;51.680;5.394;2024-02-26T12:36:07;9.10;;;6.28;;
45522;SDS011;31254;51.680;5.394;2024-02-26T12:38:34;11.02;;;6.70;;
45522;SDS011;31254;51.680;5.394;2024-02-26T12:41:03;10.32;;;6.60;;
45522;SDS011;31254;51.680;5.394;2024-02-26T12:51:48;11.02;;;7.10;;
45522;SDS011;31254;51.680;5.394;2024-02-26T12:54:54;10.55;;;7.07;;
45522;SDS011;31254;51.680;5.394;2024-02-26T13:00:48;10.52;;;7.07;;
45522;SDS011;31254;51.680;5.394;2024-02-26T13:03:59;9.82;;;6.65;;
45522;SDS011;31254;51.680;5.394;2024-02-26T13:06:33;10.02;;;6.50;;
45522;SDS011;31254;51.680;5.394;2024-02-26T13:10:04;9.90;;;6.55;;
45522;SDS011;31254;51.680;5.394;2024-02-26T13:13:47;9.30;;;6.65;;
45522;SDS011;31254;51.680;5.394;2024-02-26T13:16:45;9.07;;;5.63;;
45522;SDS011;31254;51.680;5.394;2024-02-26T13:19:48;10.52;;;7.25;;
45522;SDS011;31254;51.680;5.394;2024-02-26T13:30:23;8.98;;;6.05;;
45522;SDS011;31254;51.680;5.394;2024-02-26T13:41:43;10.93;;;6.30;;
45522;SDS011;31254;51.680;5.394;2024-02-26T13:47:00;7.78;;;5.95;;
45522;SDS011;31254;51.680;5.394;2024-02-26T13:49:26;9.13;;;6.45;;
45522;SDS011;31254;51.680;5.394;2024-02-26T14:05:01;9.30;;;6.10;;
45522;SDS011;31254;51.680;5.394;2024-02-26T14:18:10;8.23;;;5.15;;
45522;SDS011;31254;51.680;5.394;2024-02-26T14:21:31;8.60;;;5.40;;
45522;SDS011;31254;51.680;5.394;2024-02-26T14:23:57;9.05;;;5.75;;
45522;SDS011;31254;51.680;5.394;2024-02-26T14:26:24;9.35;;;5.55;;
45522;SDS011;31254;51.680;5.394;2024-02-26T14:28:51;11.60;;;5.45;;
45522;SDS011;31254;51.680;5.394;2024-02-26T14:31:18;8.40;;;5.78;;
45522;SDS011;31254;51.680;5.394;2024-02-26T14:36:26;7.82;;;5.32;;
45522;SDS011;31254;51.680;5.394;2024-02-26T14:38:53;8.10;;;5.60;;
45522;SDS011;31254;51.680;5.394;2024-02-26T14:43:57;8.68;;;5.57;;
45522;SDS011;31254;51.680;5.394;2024-02-26T14:54:11;8.35;;;5.63;;
45522;SDS011;31254;51.680;5.394;2024-02-26T14:59:14;8.15;;;5.70;;
45522;SDS011;31254;51.680;5.394;2024-02-26T15:01:42;10.18;;;5.88;;
45522;SDS011;31254;51.680;5.394;2024-02-26T15:04:10;8.73;;;6.00;;
45522;SDS011;31254;51.680;5.394;2024-02-26T15:14:37;8.43;;;5.30;;
45522;SDS011;31254;51.680;5.394;2024-02-26T15:17:05;7.13;;;5.05;;
45522;SDS011;31254;51.680;5.394;2024-02-26T15:22:25;7.03;;;5.10;;
45522;SDS011;31254;51.680;5.394;2024-02-26T15:27:28;7.20;;;4.90;;
45522;SDS011;31254;51.680;5.394;2024-02-26T15:32:30;8.27;;;5.38;;
45522;SDS011;31254;51.680;5.394;2024-02-26T15:34:57;8.02;;;4.95;;
45522;SDS011;31254;51.680;5.394;2024-02-26T15:40:02;7.05;;;5.28;;
45522;SDS011;31254;51.680;5.394;2024-02-26T15:45:05;7.50;;;5.35;;
45522;SDS011;31254;51.680;5.394;2024-02-26T15:58:31;7.78;;;5.18;;
45522;SDS011;31254;51.680;5.394;2024-02-26T16:01:18;6.93;;;5.07;;
45522;SDS011;31254;51.680;5.394;2024-02-26T16:11:56;9.10;;;5.18;;
45522;SDS011;31254;51.680;5.394;2024-02-26T16:25:18;8.25;;;5.30;;
45522;SDS011;31254;51.680;5.394;2024-02-26T16:27:45;8.05;;;5.53;;
45522;SDS011;31254;51.680;5.394;2024-02-26T16:30:26;7.60;;;5.57;;
45522;SDS011;31254;51.680;5.394;2024-02-26T16:33:35;7.30;;;5.00;;
45522;SDS011;31254;51.680;5.394;2024-02-26T16:37:16;9.32;;;5.38;;
45522;SDS011;31254;51.680;5.394;2024-02-26T16:40:20;8.48;;;5.63;;
45522;SDS011;31254;51.680;5.394;2024-02-26T16:42:46;8.85;;;5.40;;
45522;SDS011;31254;51.680;5.394;2024-02-26T16:53:11;6.65;;;4.82;;
45522;SDS011;31254;51.680;5.394;2024-02-26T16:55:38;7.75;;;5.55;;
45522;SDS011;31254;51.680;5.394;2024-02-26T17:24:51;7.20;;;4.70;;
45522;SDS011;31254;51.680;5.394;2024-02-26T17:27:24;6.13;;;4.35;;
45522;SDS011;31254;51.680;5.394;2024-02-26T17:29:54;8.30;;;4.85;;
45522;SDS011;31254;51.680;5.394;2024-02-26T17:43:01;7.22;;;5.07;;
45522;SDS011;31254;51.680;5.394;2024-02-26T17:45:28;7.70;;;5.07;;
45522;SDS011;31254;51.680;5.394;2024-02-26T17:48:06;9.65;;;4.63;;
45522;SDS011;31254;51.680;5.394;2024-02-26T17:50:37;8.25;;;5.07;;
45522;SDS011;31254;51.680;5.394;2024-02-26T17:55:41;6.78;;;4.93;;
45522;SDS011;31254;51.680;5.394;2024-02-26T18:00:56;6.85;;;4.30;;
45522;SDS011;31254;51.680;5.394;2024-02-26T18:03:23;9.45;;;5.20;;
45522;SDS011;31254;51.680;5.394;2024-02-26T18:05:49;11.45;;;6.10;;
45522;SDS011;31254;51.680;5.394;2024-02-26T18:08:16;11.43;;;5.50;;
45522;SDS011;31254;51.680;5.394;2024-02-26T18:10:48;8.73;;;5.28;;
45522;SDS011;31254;51.680;5.394;2024-02-26T18:13:15;9.27;;;5.38;;
45522;SDS011;31254;51.680;5.394;2024-02-26T18:15:41;10.55;;;5.18;;
45522;SDS011;31254;51.680;5.394;2024-02-26T18:18:08;10.63;;;5.40;;
45522;SDS011;31254;51.680;5.394;2024-02-26T18:20:35;8.93;;;5.38;;
45522;SDS011;31254;51.680;5.394;2024-02-26T18:23:05;12.55;;;6.32;;
45522;SDS011;31254;51.680;5.394;2024-02-26T18:25:31;15.23;;;7.03;;
45522;SDS011;31254;51.680;5.394;2024-02-26T18:27:59;11.55;;;6.50;;
45522;SDS011;31254;51.680;5.394;2024-02-26T18:30:36;11.25;;;5.90;;
45522;SDS011;31254;51.680;5.394;2024-02-26T18:33:04;9.38;;;6.45;;
45522;SDS011;31254;51.680;5.394;2024-02-26T18:35:34;16.52;;;7.13;;
45522;SDS011;31254;51.680;5.394;2024-02-26T18:38:00;8.77;;;6.18;;
45522;SDS011;31254;51.680;5.394;2024-02-26T18:40:30;10.40;;;6.45;;
45522;SDS011;31254;51.680;5.394;2024-02-26T18:42:57;10.77;;;6.72;;
45522;SDS011;31254;51.680;5.394;2024-02-26T18:45:24;9.63;;;6.38;;
45522;SDS011;31254;51.680;5.394;2024-02-26T18:47:51;11.40;;;7.03;;
45522;SDS011;31254;51.680;5.394;2024-02-26T18:50:19;9.82;;;6.32;;
45522;SDS011;31254;51.680;5.394;2024-02-26T18:52:46;9.23;;;6.78;;
45522;SDS011;31254;51.680;5.394;2024-02-26T18:55:15;9.45;;;6.68;;
45522;SDS011;31254;51.680;5.394;2024-02-26T18:57:42;9.60;;;6.43;;
45522;SDS011;31254;51.680;5.394;2024-02-26T19:00:09;12.07;;;6.93;;
45522;SDS011;31254;51.680;5.394;2024-02-26T19:02:36;9.13;;;6.57;;
45522;SDS011;31254;51.680;5.394;2024-02-26T19:05:02;9.70;;;6.78;;
45522;SDS011;31254;51.680;5.394;2024-02-26T19:07:29;10.50;;;6.43;;
45522;SDS011;31254;51.680;5.394;2024-02-26T19:09:55;10.93;;;6.60;;
45522;SDS011;31254;51.680;5.394;2024-02-26T19:12:22;10.10;;;7.05;;
45522;SDS011;31254;51.680;5.394;2024-02-26T19:14:50;11.02;;;8.48;;
45522;SDS011;31254;51.680;5.394;2024-02-26T19:17:17;9.65;;;6.93;;
45522;SDS011;31254;51.680;5.394;2024-02-26T19:19:43;11.73;;;6.68;;
45522;SDS011;31254;51.680;5.394;2024-02-26T19:22:10;10.00;;;6.60;;
45522;SDS011;31254;51.680;5.394;2024-02-26T19:24:39;8.43;;;6.18;;
45522;SDS011;31254;51.680;5.394;2024-02-26T19:27:06;9.77;;;6.72;;
45522;SDS011;31254;51.680;5.394;2024-02-26T19:29:33;9.18;;;6.57;;
45522;SDS011;31254;51.680;5.394;2024-02-26T19:32:01;10.55;;;6.75;;
45522;SDS011;31254;51.680;5.394;2024-02-26T19:34:29;10.57;;;7.28;;
45522;SDS011;31254;51.680;5.394;2024-02-26T19:36:56;9.75;;;7.15;;
45522;SDS011;31254;51.680;5.394;2024-02-26T19:39:23;9.13;;;6.47;;
45522;SDS011;31254;51.680;5.394;2024-02-26T19:41:49;11.20;;;7.28;;
45522;SDS011;31254;51.680;5.394;2024-02-26T19:44:16;9.75;;;6.85;;
45522;SDS011;31254;51.680;5.394;2024-02-26T19:46:43;9.90;;;7.10;;
45522;SDS011;31254;51.680;5.394;2024-02-26T19:49:09;9.63;;;6.47;;
45522;SDS011;31254;51.680;5.394;2024-02-26T19:51:40;10.32;;;6.90;;
45522;SDS011;31254;51.680;5.394;2024-02-26T19:54:08;10.27;;;6.93;;
45522;SDS011;31254;51.680;5.394;2024-02-26T19:56:35;10.88;;;7.15;;
45522;SDS011;31254;51.680;5.394;2024-02-26T19:59:02;11.57;;;7.22;;
45522;SDS011;31254;51.680;5.394;2024-02-26T20:01:29;11.32;;;7.65;;
45522;SDS011;31254;51.680;5.394;2024-02-26T20:03:56;12.23;;;7.22;;
45522;SDS011;31254;51.680;5.394;2024-02-26T20:06:22;10.93;;;7.45;;
45522;SDS011;31254;51.680;5.394;2024-02-26T20:08:49;10.85;;;7.28;;
45522;SDS011;31254;51.680;5.394;2024-02-26T20:11:16;10.90;;;7.10;;
45522;SDS011;31254;51.680;5.394;2024-02-26T20:13:44;10.48;;;7.38;;
45522;SDS011;31254;51.680;5.394;2024-02-26T20:16:11;9.57;;;7.10;;